createdAt,value
2023-01-29T00:02:11.984Z,45.08
2023-01-29T00:04:39.278Z,44.35
2023-01-29T00:07:06.274Z,44.90
2023-01-29T00:09:33.453Z,41.80
2023-01-29T00:12:00.493Z,44.97
2023-01-29T00:14:27.816Z,43.03
2023-01-29T00:16:54.982Z,42.45
2023-01-29T00:19:22.162Z,47.25
2023-01-29T00:21:49.233Z,42.42
2023-01-29T00:24:16.442Z,46.83
2023-01-29T00:26:43.626Z,41.28
2023-01-29T00:29:10.910Z,41.88
2023-01-29T00:31:38.156Z,46.10
2023-01-29T00:34:05.293Z,45.58
2023-01-29T00:36:32.503Z,42.30
2023-01-29T00:39:02.921Z,44.90
2023-01-29T00:41:50.974Z,43.40
2023-01-29T00:44:37.288Z,46.00
2023-01-29T00:47:05.368Z,44.13
2023-01-29T00:49:32.333Z,46.25
2023-01-29T00:52:18.012Z,41.67
2023-01-29T00:54:45.102Z,46.03
2023-01-29T00:57:12.314Z,42.42
2023-01-29T00:59:39.405Z,43.35
2023-01-29T01:02:24.857Z,47.97
2023-01-29T01:04:51.891Z,45.28
2023-01-29T01:07:18.907Z,43.45
2023-01-29T01:10:04.436Z,43.80
2023-01-29T01:12:32.209Z,45.58
2023-01-29T01:14:59.386Z,47.50
2023-01-29T01:17:26.568Z,49.33
2023-01-29T01:19:54.051Z,46.70
2023-01-29T01:22:21.087Z,40.00
2023-01-29T01:24:48.117Z,44.95
2023-01-29T01:27:15.229Z,46.88
2023-01-29T01:29:42.321Z,46.85
2023-01-29T01:32:09.430Z,46.17
2023-01-29T01:34:36.575Z,42.03
2023-01-29T01:37:04.001Z,46.50
2023-01-29T01:39:31.082Z,44.92
2023-01-29T01:41:58.668Z,46.42
2023-01-29T01:45:04.394Z,50.25
2023-01-29T01:47:38.198Z,51.08
2023-01-29T01:50:22.149Z,48.15
2023-01-29T01:52:55.593Z,48.22
2023-01-29T01:55:27.857Z,45.83
2023-01-29T01:58:02.187Z,45.75
2023-01-29T02:00:29.227Z,45.25
2023-01-29T02:03:14.727Z,45.95
2023-01-29T02:06:00.956Z,48.03
2023-01-29T02:08:57.807Z,50.05
2023-01-29T02:11:25.539Z,47.65
2023-01-29T02:13:53.918Z,50.10
2023-01-29T02:16:24.315Z,49.22
2023-01-29T02:18:51.621Z,52.70
2023-01-29T02:21:34.969Z,46.17
2023-01-29T02:24:23.766Z,48.05
2023-01-29T02:27:03.261Z,46.78
2023-01-29T02:29:35.466Z,50.30
2023-01-29T02:32:20.829Z,49.42
2023-01-29T02:35:32.238Z,51.70
2023-01-29T02:38:09.534Z,45.67
2023-01-29T02:40:46.665Z,49.33
2023-01-29T02:43:28.737Z,50.28
2023-01-29T02:46:01.964Z,50.20
2023-01-29T02:48:46.107Z,45.88
2023-01-29T02:51:26.500Z,44.38
2023-01-29T02:54:02.239Z,49.08
2023-01-29T02:56:34.417Z,48.10
2023-01-29T02:59:10.343Z,48.92
2023-01-29T03:01:46.787Z,46.70
2023-01-29T03:04:21.036Z,48.28
2023-01-29T03:07:03.282Z,47.55
2023-01-29T03:09:51.755Z,48.83
2023-01-29T03:12:34.240Z,48.47
2023-01-29T03:15:16.698Z,46.67
2023-01-29T03:17:47.861Z,51.75
2023-01-29T03:20:19.757Z,49.00
2023-01-29T03:22:53.114Z,48.03
2023-01-29T03:28:26.581Z,44.97
2023-01-29T03:31:18.953Z,47.22
2023-01-29T03:34:02.186Z,47.10
2023-01-29T03:36:51.103Z,45.83
2023-01-29T03:39:18.293Z,48.40
2023-01-29T03:41:52.798Z,50.30
2023-01-29T03:44:26.683Z,46.33
2023-01-29T03:47:09.016Z,47.88
2023-01-29T03:50:05.441Z,49.83
2023-01-29T03:52:43.312Z,54.25
2023-01-29T03:55:16.851Z,48.17
2023-01-29T03:57:57.910Z,49.10
2023-01-29T04:00:32.190Z,45.63
2023-01-29T04:03:08.744Z,48.83
2023-01-29T04:05:49.403Z,51.45
2023-01-29T04:08:25.327Z,49.40
2023-01-29T04:10:54.861Z,49.50
2023-01-29T04:13:24.294Z,49.30
2023-01-29T04:15:56.329Z,46.53
2023-01-29T04:18:24.859Z,43.08
2023-01-29T04:20:52.298Z,50.55
2023-01-29T04:23:27.381Z,45.58
2023-01-29T04:26:07.015Z,52.35
2023-01-29T04:29:07.611Z,46.10
2023-01-29T04:31:45.741Z,46.65
2023-01-29T04:34:29.967Z,50.55
2023-01-29T04:37:09.574Z,48.97
2023-01-29T04:39:51.002Z,50.92
2023-01-29T04:42:42.410Z,49.00
2023-01-29T04:45:12.333Z,46.70
2023-01-29T04:48:19.289Z,50.70
2023-01-29T04:51:17.328Z,50.60
2023-01-29T04:54:02.870Z,51.60
2023-01-29T04:56:46.255Z,48.17
2023-01-29T04:59:25.250Z,49.53
2023-01-29T05:01:53.292Z,50.63
2023-01-29T05:04:21.934Z,50.67
2023-01-29T05:06:50.090Z,51.47
2023-01-29T05:09:18.189Z,54.25
2023-01-29T05:11:46.563Z,53.38
2023-01-29T05:14:17.303Z,52.95
2023-01-29T05:16:51.767Z,53.90
2023-01-29T05:19:19.167Z,57.58
2023-01-29T05:21:49.108Z,56.28
2023-01-29T05:24:22.292Z,51.38
2023-01-29T05:27:10.977Z,47.25
2023-01-29T05:29:39.210Z,59.50
2023-01-29T05:32:06.416Z,49.60
2023-01-29T05:34:34.396Z,50.92
2023-01-29T05:37:01.581Z,54.92
2023-01-29T05:39:28.653Z,57.72
2023-01-29T05:41:55.760Z,58.30
2023-01-29T05:44:22.855Z,54.97
2023-01-29T05:46:51.175Z,51.35
2023-01-29T05:49:20.564Z,54.00
2023-01-29T05:51:47.652Z,54.47
2023-01-29T05:54:14.743Z,55.03
2023-01-29T05:56:41.820Z,59.05
2023-01-29T05:59:08.963Z,57.00
2023-01-29T06:01:36.118Z,53.03
2023-01-29T06:04:03.557Z,53.67
2023-01-29T06:06:31.002Z,50.75
2023-01-29T06:08:58.162Z,59.08
2023-01-29T06:11:25.728Z,50.22
2023-01-29T06:13:53.011Z,54.75
2023-01-29T06:16:20.618Z,53.10
2023-01-29T06:18:47.853Z,65.97
2023-01-29T06:21:15.072Z,63.35
2023-01-29T06:23:42.273Z,60.83
2023-01-29T06:26:13.613Z,59.33
2023-01-29T06:28:41.693Z,52.50
2023-01-29T06:31:30.376Z,56.17
2023-01-29T06:33:57.300Z,55.95
2023-01-29T06:36:24.763Z,58.97
2023-01-29T06:38:51.969Z,53.97
2023-01-29T06:41:25.711Z,56.22
2023-01-29T06:43:53.429Z,56.08
2023-01-29T06:46:20.818Z,56.50
2023-01-29T06:48:48.164Z,59.47
2023-01-29T06:51:15.285Z,49.85
2023-01-29T06:53:44.114Z,54.72
2023-01-29T06:56:12.757Z,50.08
2023-01-29T06:58:39.748Z,53.60
2023-01-29T07:01:09.120Z,57.83
2023-01-29T07:03:37.259Z,55.22
2023-01-29T07:06:06.224Z,54.50
2023-01-29T07:08:37.165Z,53.55
2023-01-29T07:11:07.459Z,50.75
2023-01-29T07:13:35.398Z,57.55
2023-01-29T07:16:04.250Z,52.75
2023-01-29T07:18:31.980Z,50.78
2023-01-29T07:21:00.246Z,51.13
2023-01-29T07:23:27.411Z,58.00
2023-01-29T07:25:54.547Z,53.15
2023-01-29T07:28:21.656Z,53.13
2023-01-29T07:30:49.694Z,55.13
2023-01-29T07:33:16.992Z,50.15
2023-01-29T07:35:44.059Z,53.63
2023-01-29T07:38:11.662Z,53.65
2023-01-29T07:40:38.830Z,54.78
2023-01-29T07:43:08.209Z,53.72
2023-01-29T07:45:37.568Z,58.45
2023-01-29T07:48:05.831Z,60.47
2023-01-29T07:50:34.507Z,58.33
2023-01-29T07:53:02.256Z,57.97
2023-01-29T07:55:29.388Z,58.25
2023-01-29T07:58:01.508Z,57.03
2023-01-29T08:00:29.705Z,54.55
2023-01-29T08:03:07.955Z,55.05
2023-01-29T08:05:35.079Z,54.53
2023-01-29T08:08:06.825Z,50.72
2023-01-29T08:10:36.314Z,55.30
2023-01-29T08:13:05.074Z,58.40
2023-01-29T08:15:33.121Z,60.92
2023-01-29T08:18:01.824Z,56.35
2023-01-29T08:20:29.186Z,62.10
2023-01-29T08:23:08.140Z,57.15
2023-01-29T08:25:36.299Z,57.28
2023-01-29T08:28:04.404Z,60.92
2023-01-29T08:30:34.020Z,59.25
2023-01-29T08:33:01.666Z,58.80
2023-01-29T08:35:28.746Z,56.70
2023-01-29T08:38:03.572Z,58.08
2023-01-29T08:40:33.095Z,58.10
2023-01-29T08:43:06.992Z,55.50
2023-01-29T08:45:37.768Z,53.72
2023-01-29T08:48:05.314Z,57.85
2023-01-29T08:50:34.630Z,63.90
2023-01-29T08:53:03.791Z,58.35
2023-01-29T08:55:30.893Z,61.97
2023-01-29T08:57:58.024Z,59.05
2023-01-29T09:00:25.298Z,56.60
2023-01-29T09:02:52.358Z,51.55
2023-01-29T09:05:19.719Z,55.45
2023-01-29T09:07:47.135Z,49.03
2023-01-29T09:10:14.268Z,59.28
2023-01-29T09:12:41.338Z,61.35
2023-01-29T09:15:09.021Z,56.33
2023-01-29T09:17:36.105Z,67.53
2023-01-29T09:20:03.452Z,64.20
2023-01-29T09:22:30.582Z,64.18
2023-01-29T09:24:57.768Z,64.78
2023-01-29T09:27:24.985Z,59.55
2023-01-29T09:29:52.165Z,66.03
2023-01-29T09:32:37.645Z,53.95
2023-01-29T09:35:06.746Z,58.20
2023-01-29T09:37:33.818Z,61.00
2023-01-29T09:40:00.892Z,61.78
2023-01-29T09:42:42.122Z,69.07
2023-01-29T09:45:16.837Z,63.28
2023-01-29T09:47:45.022Z,61.72
2023-01-29T09:50:27.142Z,63.40
2023-01-29T09:53:01.630Z,62.63
2023-01-29T09:55:39.418Z,59.38
2023-01-29T09:58:33.765Z,59.17
2023-01-29T10:01:28.123Z,57.08
2023-01-29T10:03:58.229Z,54.67
2023-01-29T10:06:45.968Z,56.28
2023-01-29T10:09:40.336Z,62.33
2023-01-29T10:12:25.421Z,54.72
2023-01-29T10:14:52.479Z,62.13
2023-01-29T10:17:37.300Z,62.00
2023-01-29T10:20:30.509Z,58.13
2023-01-29T10:23:00.631Z,60.67
2023-01-29T10:25:28.226Z,54.63
2023-01-29T10:27:58.473Z,57.78
2023-01-29T10:30:39.347Z,56.17
2023-01-29T10:33:12.594Z,55.17
2023-01-29T10:38:42.970Z,56.03
2023-01-29T10:41:34.694Z,50.47
2023-01-29T10:44:34.063Z,57.38
2023-01-29T10:47:25.193Z,55.67
2023-01-29T10:50:04.709Z,51.70
2023-01-29T10:52:45.880Z,52.55
2023-01-29T10:55:40.347Z,53.45
2023-01-29T10:58:25.428Z,56.83
2023-01-29T11:00:53.185Z,51.80
2023-01-29T11:06:21.900Z,50.97
2023-01-29T11:08:52.072Z,48.65
2023-01-29T11:11:22.407Z,45.83
2023-01-29T11:14:07.173Z,48.78
2023-01-29T11:16:45.921Z,47.75
2023-01-29T11:19:13.596Z,46.38
2023-01-29T11:21:58.259Z,53.80
2023-01-29T11:24:26.063Z,46.17
2023-01-29T11:26:55.692Z,52.67
2023-01-29T11:29:42.033Z,54.03
2023-01-29T11:32:25.376Z,51.40
2023-01-29T11:35:01.003Z,46.65
2023-01-29T11:37:39.550Z,46.83
2023-01-29T11:40:34.184Z,52.72
2023-01-29T11:43:23.404Z,47.60
2023-01-29T11:45:53.766Z,50.40
2023-01-29T11:48:23.603Z,51.70
2023-01-29T11:51:01.201Z,49.40
2023-01-29T11:53:56.835Z,46.28
2023-01-29T11:56:39.694Z,52.10
2023-01-29T11:59:13.895Z,48.17
2023-01-29T12:01:42.442Z,50.60
2023-01-29T12:04:24.898Z,52.03
2023-01-29T12:06:54.481Z,48.72
2023-01-29T12:09:24.951Z,43.17
2023-01-29T12:11:52.855Z,48.55
2023-01-29T12:14:33.518Z,43.70
2023-01-29T12:17:04.229Z,49.05
2023-01-29T12:19:45.676Z,50.22
2023-01-29T12:22:18.384Z,50.28
2023-01-29T12:24:58.699Z,47.97
2023-01-29T12:27:28.039Z,51.25
2023-01-29T12:30:07.772Z,52.30
2023-01-29T12:32:56.488Z,52.67
2023-01-29T12:35:35.686Z,47.97
2023-01-29T12:38:19.335Z,50.72
2023-01-29T12:41:00.960Z,54.15
2023-01-29T12:43:31.674Z,47.92
2023-01-29T12:46:01.243Z,46.58
2023-01-29T12:48:36.717Z,51.65
2023-01-29T12:51:18.976Z,47.13
2023-01-29T12:54:02.698Z,43.40
2023-01-29T12:56:59.130Z,44.30
2023-01-29T12:59:33.105Z,46.80
2023-01-29T13:02:26.085Z,42.80
2023-01-29T13:05:30.693Z,47.67
2023-01-29T13:08:08.926Z,45.00
2023-01-29T13:10:41.758Z,45.03
2023-01-29T13:13:27.028Z,40.70
2023-01-29T13:15:55.794Z,48.50
2023-01-29T13:18:32.007Z,51.40
2023-01-29T13:21:01.196Z,44.95
2023-01-29T13:23:53.841Z,50.58
2023-01-29T13:26:22.521Z,47.28
2023-01-29T13:28:51.621Z,45.35
2023-01-29T13:31:32.109Z,49.85
2023-01-29T13:34:15.473Z,50.72
2023-01-29T13:36:45.565Z,58.58
2023-01-29T13:39:22.906Z,63.03
2023-01-29T13:41:51.238Z,67.47
2023-01-29T13:44:26.862Z,62.00
2023-01-29T13:47:20.479Z,57.60
2023-01-29T13:50:01.333Z,66.85
2023-01-29T13:52:41.034Z,77.88
2023-01-29T13:55:19.953Z,73.10
2023-01-29T13:57:47.235Z,77.07
2023-01-29T14:00:30.980Z,74.47
2023-01-29T14:03:01.269Z,77.07
2023-01-29T14:05:31.604Z,77.90
2023-01-29T14:08:02.396Z,102.25
2023-01-29T14:10:34.310Z,111.53
2023-01-29T14:13:04.432Z,110.18
2023-01-29T14:15:38.627Z,101.63
2023-01-29T14:18:13.275Z,95.88
2023-01-29T14:20:51.796Z,92.72
2023-01-29T14:23:23.407Z,97.03
2023-01-29T14:25:53.849Z,98.15
2023-01-29T14:28:26.406Z,101.20
2023-01-29T14:30:58.473Z,99.13
2023-01-29T14:33:31.065Z,101.03
2023-01-29T14:35:59.168Z,80.32
2023-01-29T14:38:29.176Z,87.07
2023-01-29T14:41:15.915Z,86.10
2023-01-29T14:43:43.108Z,88.22
2023-01-29T14:46:49.410Z,83.75
2023-01-29T14:49:55.456Z,83.43
2023-01-29T14:52:39.970Z,87.97
2023-01-29T14:55:30.878Z,93.38
2023-01-29T14:58:03.102Z,106.32
2023-01-29T15:00:42.083Z,110.33
2023-01-29T15:03:47.747Z,98.65
2023-01-29T15:06:43.244Z,101.82
2023-01-29T15:09:36.462Z,96.05
2023-01-29T15:12:13.831Z,106.82
2023-01-29T15:15:17.895Z,102.90
2023-01-29T15:17:48.199Z,112.43
2023-01-29T15:20:36.909Z,102.97
2023-01-29T15:23:04.941Z,94.97
2023-01-29T15:25:37.080Z,102.22
2023-01-29T15:28:08.841Z,106.03
2023-01-29T15:30:36.608Z,108.50
2023-01-29T15:33:04.684Z,100.00
2023-01-29T15:35:40.142Z,101.55
2023-01-29T15:38:20.956Z,104.35
2023-01-29T15:40:59.779Z,105.18
2023-01-29T15:43:38.847Z,112.95
2023-01-29T15:46:29.610Z,107.63
2023-01-29T15:49:04.589Z,107.43
2023-01-29T15:51:38.738Z,108.07
2023-01-29T15:54:17.256Z,122.30
2023-01-29T15:56:49.707Z,122.00
2023-01-29T15:59:29.031Z,112.10
2023-01-29T16:02:01.192Z,126.65
2023-01-29T16:04:34.805Z,110.87
2023-01-29T16:07:07.590Z,113.55
2023-01-29T16:09:41.415Z,106.28
2023-01-29T16:12:16.782Z,113.80
2023-01-29T16:14:48.409Z,128.00
2023-01-29T16:17:26.339Z,121.00
2023-01-29T16:20:08.512Z,120.50
2023-01-29T16:22:43.290Z,82.18
2023-01-29T16:25:21.232Z,93.18
2023-01-29T16:27:55.502Z,90.18
2023-01-29T16:30:29.370Z,91.90
2023-01-29T16:33:10.562Z,72.57
2023-01-29T16:35:42.818Z,74.95
2023-01-29T16:38:38.555Z,76.82
2023-01-29T16:41:29.232Z,64.97
2023-01-29T16:44:25.783Z,60.40
2023-01-29T16:46:59.425Z,60.60
2023-01-29T16:49:32.432Z,62.17
2023-01-29T16:55:18.492Z,54.65
2023-01-29T16:58:03.744Z,54.45
2023-01-29T17:00:37.796Z,52.10
2023-01-29T17:03:09.108Z,54.60
2023-01-29T17:05:42.874Z,55.38
2023-01-29T17:08:39.060Z,56.97
2023-01-29T17:11:08.604Z,56.70
2023-01-29T17:13:42.971Z,56.60
2023-01-29T17:16:27.702Z,52.72
2023-01-29T17:18:55.266Z,60.30
2023-01-29T17:21:22.468Z,53.67
2023-01-29T17:23:49.594Z,62.15
2023-01-29T17:26:17.518Z,58.53
2023-01-29T17:28:45.342Z,56.85
2023-01-29T17:31:12.489Z,58.67
2023-01-29T17:33:48.415Z,67.13
2023-01-29T17:36:18.024Z,60.80
2023-01-29T17:38:45.965Z,64.22
2023-01-29T17:41:27.390Z,64.65
2023-01-29T17:43:54.751Z,74.75
2023-01-29T17:46:22.220Z,68.85
2023-01-29T17:48:49.556Z,71.85
2023-01-29T17:51:18.192Z,73.82
2023-01-29T17:53:46.819Z,78.07
2023-01-29T17:56:20.564Z,72.45
2023-01-29T17:58:47.990Z,65.13
2023-01-29T18:01:15.270Z,71.05
2023-01-29T18:03:42.461Z,71.43
2023-01-29T18:06:11.087Z,99.70
2023-01-29T18:08:39.895Z,100.82
2023-01-29T18:11:07.263Z,138.10
2023-01-29T18:13:36.607Z,130.68
2023-01-29T18:16:04.268Z,119.65
2023-01-29T18:18:31.387Z,109.13
2023-01-29T18:20:58.665Z,90.53
2023-01-29T18:23:26.032Z,88.72
2023-01-29T18:25:54.905Z,87.35
2023-01-29T18:28:22.039Z,120.45
2023-01-29T18:30:49.502Z,126.97
2023-01-29T18:33:17.699Z,123.60
2023-01-29T18:35:48.407Z,121.03
2023-01-29T18:38:16.256Z,119.32
2023-01-29T18:40:43.648Z,129.10
2023-01-29T18:43:10.845Z,124.25
2023-01-29T18:45:38.521Z,120.13
2023-01-29T18:48:06.391Z,121.47
2023-01-29T18:50:34.367Z,119.30
2023-01-29T18:53:01.639Z,118.72
2023-01-29T18:55:28.683Z,112.13
2023-01-29T18:58:27.339Z,116.13
2023-01-29T19:00:43.903Z,108.05
2023-01-29T19:03:11.464Z,103.15
2023-01-29T19:05:38.665Z,109.07
2023-01-29T19:08:06.058Z,86.10
2023-01-29T19:10:34.447Z,101.50
2023-01-29T19:13:01.943Z,90.25
2023-01-29T19:15:29.332Z,90.53
2023-01-29T19:17:56.859Z,90.05
2023-01-29T19:20:23.996Z,88.47
2023-01-29T19:22:51.120Z,85.88
2023-01-29T19:25:19.756Z,85.55
2023-01-29T19:27:47.197Z,103.85
2023-01-29T19:30:14.586Z,103.97
2023-01-29T19:32:41.674Z,95.80
2023-01-29T19:35:08.928Z,98.70
2023-01-29T19:37:36.028Z,91.95
2023-01-29T19:40:03.532Z,73.85
2023-01-29T19:42:30.645Z,87.13
2023-01-29T19:44:57.760Z,61.97
2023-01-29T19:47:24.948Z,52.08
2023-01-29T19:49:52.045Z,63.38
2023-01-29T19:52:51.422Z,41.00
2023-01-29T19:55:20.272Z,48.60
2023-01-29T19:57:47.775Z,38.15
2023-01-29T20:00:15.632Z,33.42
2023-01-29T20:02:42.663Z,27.70
2023-01-29T20:05:12.292Z,24.45
2023-01-29T20:07:41.324Z,23.75
2023-01-29T20:10:11.559Z,24.80
2023-01-29T20:12:38.932Z,18.33
2023-01-29T20:15:07.491Z,18.70
2023-01-29T20:17:34.585Z,19.75
2023-01-29T20:20:02.583Z,20.05
2023-01-29T20:22:30.161Z,18.25
2023-01-29T20:24:57.710Z,17.27
2023-01-29T20:27:25.339Z,19.60
2023-01-29T20:29:52.851Z,18.50
2023-01-29T20:32:20.149Z,16.33
2023-01-29T20:34:53.940Z,17.33
2023-01-29T20:37:22.445Z,18.48
2023-01-29T20:39:50.133Z,18.15
2023-01-29T20:42:17.869Z,14.70
2023-01-29T20:44:45.045Z,19.08
2023-01-29T20:47:14.785Z,18.90
2023-01-29T20:49:41.913Z,21.23
2023-01-29T20:52:10.963Z,17.08
2023-01-29T20:54:38.059Z,23.10
2023-01-29T20:57:05.295Z,18.60
2023-01-29T20:59:32.823Z,21.40
2023-01-29T21:02:00.172Z,17.27
2023-01-29T21:04:27.525Z,14.25
2023-01-29T21:06:54.851Z,15.48
2023-01-29T21:09:21.930Z,19.63
2023-01-29T21:11:49.280Z,21.35
2023-01-29T21:14:16.263Z,20.23
2023-01-29T21:16:43.427Z,20.92
2023-01-29T21:19:14.914Z,13.02
2023-01-29T21:21:41.931Z,13.35
2023-01-29T21:24:09.573Z,15.38
2023-01-29T21:26:39.548Z,12.55
2023-01-29T21:29:07.107Z,16.35
2023-01-29T21:31:34.241Z,15.63
2023-01-29T21:34:01.798Z,19.23
2023-01-29T21:36:28.933Z,13.65
2023-01-29T21:38:55.987Z,13.23
2023-01-29T21:41:43.181Z,19.02
2023-01-29T21:44:10.728Z,16.48
2023-01-29T21:46:38.057Z,15.98
2023-01-29T21:49:05.317Z,15.07
2023-01-29T21:51:32.332Z,14.35
2023-01-29T21:53:59.422Z,14.95
2023-01-29T21:56:26.580Z,19.42
2023-01-29T21:58:53.635Z,15.68
2023-01-29T22:01:37.643Z,14.63
2023-01-29T22:04:07.772Z,17.27
2023-01-29T22:06:34.909Z,24.73
2023-01-29T22:09:02.001Z,19.33
2023-01-29T22:11:29.372Z,21.02
2023-01-29T22:13:56.452Z,19.88
2023-01-29T22:16:23.715Z,27.77
2023-01-29T22:18:50.908Z,63.83
2023-01-29T22:21:18.145Z,86.43
2023-01-29T22:23:49.435Z,98.43
2023-01-29T22:26:17.472Z,106.90
2023-01-29T22:28:44.806Z,64.70
2023-01-29T22:31:12.196Z,69.90
2023-01-29T22:33:39.230Z,59.72
2023-01-29T22:36:06.863Z,57.33
2023-01-29T22:38:33.945Z,61.50
2023-01-29T22:41:01.598Z,59.85
2023-01-29T22:43:29.454Z,63.80
2023-01-29T22:45:56.632Z,51.28
2023-01-29T22:48:24.085Z,44.70
2023-01-29T22:51:10.198Z,41.80
2023-01-29T22:53:39.100Z,46.28
2023-01-29T22:56:07.416Z,52.97
2023-01-29T22:58:34.708Z,39.50
2023-01-29T23:01:01.803Z,38.78
2023-01-29T23:03:29.161Z,27.58
2023-01-29T23:05:56.246Z,17.77
2023-01-29T23:08:23.463Z,18.80
2023-01-29T23:10:50.678Z,24.33
2023-01-29T23:13:17.814Z,28.00
2023-01-29T23:15:44.957Z,27.48
2023-01-29T23:18:12.031Z,28.98
2023-01-29T23:20:39.096Z,37.25
2023-01-29T23:23:06.152Z,38.17
2023-01-29T23:25:51.552Z,42.80
2023-01-29T23:28:18.695Z,44.20
2023-01-29T23:30:48.078Z,45.25
2023-01-29T23:33:15.377Z,44.78
2023-01-29T23:35:42.542Z,49.03
2023-01-29T23:38:09.562Z,39.78
2023-01-29T23:40:36.598Z,37.70
2023-01-29T23:43:03.691Z,35.50
2023-01-29T23:45:30.747Z,34.60
2023-01-29T23:47:57.782Z,31.58
2023-01-29T23:50:24.916Z,33.50
2023-01-29T23:52:52.040Z,28.08
2023-01-29T23:55:19.129Z,31.30
2023-01-29T23:57:46.098Z,34.88
